createdAt,value
2022-12-26T00:02:09.545Z,15.30
2022-12-26T00:04:49.739Z,18.27
2022-12-26T00:07:24.938Z,18.00
2022-12-26T00:09:56.792Z,18.42
2022-12-26T00:12:28.727Z,18.17
2022-12-26T00:15:00.761Z,19.38
2022-12-26T00:17:32.858Z,18.25
2022-12-26T00:20:05.374Z,17.80
2022-12-26T00:22:37.366Z,17.48
2022-12-26T00:25:10.847Z,18.55
2022-12-26T00:27:42.935Z,18.55
2022-12-26T00:30:15.129Z,17.05
2022-12-26T00:32:47.170Z,17.60
2022-12-26T00:35:19.101Z,18.05
2022-12-26T00:37:51.042Z,17.42
2022-12-26T00:40:23.831Z,17.48
2022-12-26T00:42:55.774Z,17.40
2022-12-26T00:45:27.725Z,17.23
2022-12-26T00:47:59.684Z,16.55
2022-12-26T00:50:34.890Z,16.48
2022-12-26T00:53:07.069Z,16.17
2022-12-26T00:55:39.243Z,16.25
2022-12-26T00:58:11.222Z,16.48
2022-12-26T01:00:43.265Z,16.00
2022-12-26T01:03:15.720Z,17.02
2022-12-26T01:05:51.943Z,15.95
2022-12-26T01:08:25.035Z,17.25
2022-12-26T01:10:57.133Z,18.40
2022-12-26T01:13:29.023Z,19.13
2022-12-26T01:16:01.460Z,18.42
2022-12-26T01:18:34.792Z,19.77
2022-12-26T01:21:10.222Z,19.67
2022-12-26T01:23:42.151Z,19.65
2022-12-26T01:26:17.736Z,19.98
2022-12-26T01:28:53.265Z,19.77
2022-12-26T01:31:25.249Z,19.50
2022-12-26T01:33:57.191Z,20.98
2022-12-26T01:36:29.076Z,21.00
2022-12-26T01:39:01.041Z,18.55
2022-12-26T01:41:33.368Z,18.73
2022-12-26T01:44:26.729Z,19.60
2022-12-26T01:46:58.929Z,18.65
2022-12-26T01:49:44.669Z,21.23
2022-12-26T01:52:27.879Z,19.05
2022-12-26T01:55:00.650Z,20.35
2022-12-26T01:57:42.539Z,19.63
2022-12-26T02:00:15.374Z,20.63
2022-12-26T02:03:07.260Z,19.65
2022-12-26T02:05:39.849Z,20.83
2022-12-26T02:08:16.571Z,19.58
2022-12-26T02:11:16.617Z,20.33
2022-12-26T02:13:48.856Z,18.95
2022-12-26T02:16:21.289Z,19.70
2022-12-26T02:18:53.235Z,19.52
2022-12-26T02:21:55.762Z,19.13
2022-12-26T02:24:41.056Z,19.33
2022-12-26T02:27:25.742Z,19.20
2022-12-26T02:30:07.140Z,19.27
2022-12-26T02:32:57.595Z,19.98
2022-12-26T02:35:35.778Z,19.48
2022-12-26T02:38:31.812Z,21.02
2022-12-26T02:41:11.586Z,20.17
2022-12-26T02:43:58.602Z,20.00
2022-12-26T02:47:13.436Z,20.23
2022-12-26T02:50:38.448Z,20.10
2022-12-26T02:53:39.672Z,19.83
2022-12-26T02:56:48.191Z,19.48
2022-12-26T02:59:57.232Z,20.15
2022-12-26T03:02:55.103Z,18.33
2022-12-26T03:05:54.078Z,18.27
2022-12-26T03:08:55.774Z,19.73
2022-12-26T03:14:26.523Z,20.13
2022-12-26T03:17:20.967Z,19.73
2022-12-26T03:20:04.093Z,20.83
2022-12-26T03:22:42.216Z,21.20
2022-12-26T03:26:05.232Z,20.48
2022-12-26T03:28:37.788Z,20.20
2022-12-26T03:31:13.245Z,19.88
2022-12-26T03:34:05.464Z,19.67
2022-12-26T03:37:02.019Z,20.27
2022-12-26T03:39:58.719Z,20.40
2022-12-26T03:43:04.251Z,19.30
2022-12-26T03:46:10.763Z,19.35
2022-12-26T03:49:19.565Z,19.13
2022-12-26T03:52:15.905Z,19.65
2022-12-26T03:55:29.338Z,20.67
2022-12-26T03:58:25.341Z,21.95
2022-12-26T04:01:18.341Z,21.40
2022-12-26T04:04:10.520Z,21.77
2022-12-26T04:07:20.923Z,20.77
2022-12-26T04:10:28.018Z,20.80
2022-12-26T04:13:20.940Z,21.90
2022-12-26T04:16:20.361Z,21.95
2022-12-26T04:19:26.245Z,22.52
2022-12-26T04:22:32.656Z,22.23
2022-12-26T04:25:50.042Z,22.45
2022-12-26T04:28:38.230Z,23.50
2022-12-26T04:31:51.677Z,23.33
2022-12-26T04:34:56.009Z,24.65
2022-12-26T04:37:49.451Z,25.80
2022-12-26T04:40:47.533Z,26.55
2022-12-26T04:43:47.033Z,27.10
2022-12-26T04:46:24.771Z,25.02
2022-12-26T04:49:15.907Z,26.25
2022-12-26T04:51:48.548Z,27.30
2022-12-26T04:54:20.425Z,26.67
2022-12-26T04:56:52.726Z,26.40
2022-12-26T04:59:25.542Z,24.88
2022-12-26T05:02:16.084Z,25.17
2022-12-26T05:05:06.642Z,23.98
2022-12-26T05:07:57.218Z,25.17
2022-12-26T05:10:29.399Z,25.13
2022-12-26T05:13:01.367Z,24.92
2022-12-26T05:15:53.471Z,26.20
2022-12-26T05:18:43.834Z,24.65
2022-12-26T05:21:37.544Z,25.67
2022-12-26T05:24:36.738Z,25.10
2022-12-26T05:27:34.516Z,24.45
2022-12-26T05:30:07.896Z,24.83
2022-12-26T05:32:58.454Z,24.05
2022-12-26T05:35:30.467Z,26.05
2022-12-26T05:38:03.137Z,24.27
2022-12-26T05:40:36.179Z,24.40
2022-12-26T05:43:08.472Z,26.27
2022-12-26T05:45:40.400Z,25.92
2022-12-26T05:48:12.283Z,24.83
2022-12-26T05:50:44.282Z,25.00
2022-12-26T05:53:16.205Z,23.73
2022-12-26T05:55:48.098Z,23.75
2022-12-26T05:58:20.394Z,23.92
2022-12-26T06:00:52.301Z,24.15
2022-12-26T06:03:24.362Z,25.45
2022-12-26T06:05:57.672Z,24.95
2022-12-26T06:08:29.806Z,24.10
2022-12-26T06:11:09.466Z,26.00
2022-12-26T06:13:42.194Z,25.75
2022-12-26T06:16:16.410Z,25.30
2022-12-26T06:18:49.707Z,24.98
2022-12-26T06:21:22.479Z,23.75
2022-12-26T06:23:54.429Z,24.50
2022-12-26T06:26:26.779Z,24.85
2022-12-26T06:28:58.823Z,24.38
2022-12-26T06:31:30.898Z,23.92
2022-12-26T06:34:02.867Z,23.25
2022-12-26T06:36:34.828Z,24.92
2022-12-26T06:39:06.792Z,24.35
2022-12-26T06:41:38.792Z,23.58
2022-12-26T06:44:17.716Z,25.30
2022-12-26T06:46:50.316Z,24.17
2022-12-26T06:49:26.210Z,25.33
2022-12-26T06:52:00.732Z,24.50
2022-12-26T06:54:32.665Z,26.20
2022-12-26T06:57:04.590Z,28.35
2022-12-26T06:59:36.486Z,29.60
2022-12-26T07:02:11.323Z,27.50
2022-12-26T07:04:43.472Z,27.65
2022-12-26T07:07:15.522Z,26.05
2022-12-26T07:09:47.441Z,25.75
2022-12-26T07:12:21.794Z,26.45
2022-12-26T07:14:59.706Z,27.48
2022-12-26T07:17:33.386Z,27.77
2022-12-26T07:20:06.011Z,29.52
2022-12-26T07:22:38.427Z,30.73
2022-12-26T07:25:10.482Z,29.52
2022-12-26T07:27:43.072Z,45.60
2022-12-26T07:30:15.151Z,38.78
2022-12-26T07:32:47.155Z,33.00
2022-12-26T07:35:19.220Z,51.42
2022-12-26T07:37:52.003Z,39.30
2022-12-26T07:40:24.004Z,36.25
2022-12-26T07:42:55.938Z,35.42
2022-12-26T07:45:28.036Z,35.35
2022-12-26T07:48:01.318Z,31.45
2022-12-26T07:50:33.205Z,29.73
2022-12-26T07:53:05.284Z,30.55
2022-12-26T07:55:37.154Z,28.73
2022-12-26T07:58:09.140Z,30.50
2022-12-26T08:00:41.142Z,29.02
2022-12-26T08:03:13.476Z,28.10
2022-12-26T08:05:47.862Z,28.55
2022-12-26T08:08:20.646Z,26.75
2022-12-26T08:11:03.491Z,42.58
2022-12-26T08:13:35.851Z,71.28
2022-12-26T08:16:09.400Z,27.05
2022-12-26T08:18:42.036Z,26.65
2022-12-26T08:21:14.326Z,27.27
2022-12-26T08:23:48.362Z,27.15
2022-12-26T08:26:23.388Z,27.17
2022-12-26T08:28:56.901Z,26.83
2022-12-26T08:31:28.869Z,26.70
2022-12-26T08:34:00.875Z,26.05
2022-12-26T08:36:34.407Z,25.15
2022-12-26T08:39:06.494Z,25.65
2022-12-26T08:41:38.395Z,26.95
2022-12-26T08:44:29.037Z,25.42
2022-12-26T08:47:01.300Z,24.95
2022-12-26T08:49:33.228Z,25.33
2022-12-26T08:52:05.186Z,28.60
2022-12-26T08:54:37.060Z,23.80
2022-12-26T08:57:09.610Z,23.13
2022-12-26T08:59:41.828Z,22.02
2022-12-26T09:02:13.917Z,22.25
2022-12-26T09:04:46.092Z,22.42
2022-12-26T09:07:18.445Z,22.92
2022-12-26T09:09:50.380Z,22.67
2022-12-26T09:12:22.253Z,24.52
2022-12-26T09:14:54.199Z,22.38
2022-12-26T09:17:28.075Z,21.17
2022-12-26T09:20:00.137Z,23.45
2022-12-26T09:22:51.000Z,22.88
2022-12-26T09:25:25.528Z,27.15
2022-12-26T09:27:59.460Z,24.55
2022-12-26T09:30:31.756Z,25.20
2022-12-26T09:33:07.851Z,28.08
2022-12-26T09:35:41.253Z,28.23
2022-12-26T09:38:13.478Z,30.08
2022-12-26T09:41:04.283Z,29.42
2022-12-26T09:44:04.235Z,30.00
2022-12-26T09:46:44.349Z,30.23
2022-12-26T09:49:24.273Z,30.90
2022-12-26T09:52:00.830Z,29.95
2022-12-26T09:54:47.671Z,30.63
2022-12-26T09:57:36.267Z,30.65
2022-12-26T10:00:21.238Z,29.55
2022-12-26T10:02:57.115Z,28.35
2022-12-26T10:05:38.787Z,29.95
2022-12-26T10:08:40.719Z,29.63
2022-12-26T10:11:28.744Z,30.08
2022-12-26T10:14:08.556Z,30.85
2022-12-26T10:16:58.127Z,31.17
2022-12-26T10:19:54.924Z,31.73
2022-12-26T10:22:51.158Z,33.28
2022-12-26T10:25:38.798Z,33.10
2022-12-26T10:28:32.156Z,32.15
2022-12-26T10:31:12.515Z,32.65
2022-12-26T10:33:56.967Z,33.50
2022-12-26T10:36:35.316Z,33.42
2022-12-26T10:39:25.470Z,33.90
2022-12-26T10:42:03.767Z,34.63
2022-12-26T10:44:35.669Z,35.28
2022-12-26T10:47:15.883Z,36.47
2022-12-26T10:49:49.102Z,34.95
2022-12-26T10:52:26.387Z,35.33
2022-12-26T10:55:29.345Z,34.85
2022-12-26T10:57:53.225Z,35.35
2022-12-26T11:00:28.002Z,37.33
2022-12-26T11:03:07.797Z,39.10
2022-12-26T11:06:10.050Z,39.38
2022-12-26T11:08:49.958Z,39.90
2022-12-26T11:11:25.394Z,40.95
2022-12-26T11:14:03.381Z,41.42
2022-12-26T11:16:38.986Z,41.80
2022-12-26T11:19:52.726Z,40.90
2022-12-26T11:22:27.454Z,41.63
2022-12-26T11:25:08.320Z,43.13
2022-12-26T11:27:46.379Z,42.08
2022-12-26T11:30:18.589Z,43.80
2022-12-26T11:33:19.453Z,43.92
2022-12-26T11:35:57.555Z,44.73
2022-12-26T11:38:44.449Z,43.65
2022-12-26T11:41:36.896Z,42.30
2022-12-26T11:44:14.942Z,42.22
2022-12-26T11:47:06.282Z,43.92
2022-12-26T11:49:39.814Z,42.72
2022-12-26T11:52:38.106Z,41.08
2022-12-26T11:55:30.325Z,41.63
2022-12-26T11:58:06.153Z,42.08
2022-12-26T12:00:39.224Z,39.90
2022-12-26T12:03:34.489Z,42.08
2022-12-26T12:06:15.280Z,42.55
2022-12-26T12:09:11.853Z,40.97
2022-12-26T12:12:07.644Z,41.50
2022-12-26T12:15:13.002Z,40.88
2022-12-26T12:18:06.485Z,41.55
2022-12-26T12:20:52.187Z,39.45
2022-12-26T12:23:58.773Z,41.17
2022-12-26T12:26:55.808Z,42.50
2022-12-26T12:30:13.182Z,40.85
2022-12-26T12:33:00.773Z,44.47
2022-12-26T12:35:51.796Z,54.80
2022-12-26T12:38:32.353Z,45.75
2022-12-26T12:41:10.147Z,43.67
2022-12-26T12:43:51.045Z,42.33
2022-12-26T12:46:46.827Z,41.65
2022-12-26T12:49:26.951Z,42.95
2022-12-26T12:52:22.386Z,45.47
2022-12-26T12:55:16.042Z,43.25
2022-12-26T12:58:11.030Z,44.17
2022-12-26T13:01:13.840Z,43.85
2022-12-26T13:04:03.001Z,47.15
2022-12-26T13:06:52.153Z,48.33
2022-12-26T13:09:33.029Z,49.88
2022-12-26T13:12:14.852Z,50.22
2022-12-26T13:15:15.868Z,49.25
2022-12-26T13:17:56.477Z,49.30
2022-12-26T13:20:42.625Z,47.67
2022-12-26T13:24:00.769Z,48.88
2022-12-26T13:26:37.922Z,48.47
2022-12-26T13:29:20.031Z,50.53
2022-12-26T13:31:53.596Z,50.05
2022-12-26T13:34:27.059Z,47.03
2022-12-26T13:37:01.181Z,49.60
2022-12-26T13:39:37.166Z,49.42
2022-12-26T13:42:27.586Z,49.15
2022-12-26T13:45:40.221Z,48.92
2022-12-26T13:48:17.989Z,47.80
2022-12-26T13:50:55.675Z,47.70
2022-12-26T13:53:39.249Z,47.28
2022-12-26T13:56:45.873Z,48.08
2022-12-26T13:59:28.290Z,47.00
2022-12-26T14:03:16.834Z,48.35
2022-12-26T14:06:14.478Z,49.63
2022-12-26T14:08:58.548Z,50.63
2022-12-26T14:11:52.322Z,49.15
2022-12-26T14:15:03.155Z,50.97
2022-12-26T14:17:41.699Z,49.30
2022-12-26T14:20:19.670Z,49.83
2022-12-26T14:23:07.530Z,48.28
2022-12-26T14:25:50.932Z,47.67
2022-12-26T14:28:35.307Z,47.13
2022-12-26T14:31:45.457Z,48.53
2022-12-26T14:34:32.131Z,50.08
2022-12-26T14:37:10.059Z,47.53
2022-12-26T14:40:06.749Z,47.75
2022-12-26T14:43:13.905Z,47.30
2022-12-26T14:45:51.722Z,48.92
2022-12-26T14:48:23.732Z,48.30
2022-12-26T14:51:04.479Z,50.97
2022-12-26T14:53:36.909Z,49.87
2022-12-26T14:56:10.359Z,49.38
2022-12-26T14:58:49.442Z,49.83
2022-12-26T15:01:24.344Z,49.28
2022-12-26T15:04:15.185Z,46.92
2022-12-26T15:07:20.724Z,174.83
2022-12-26T15:10:22.735Z,144.13
2022-12-26T15:13:30.421Z,50.65
2022-12-26T15:16:22.017Z,48.97
2022-12-26T15:25:08.368Z,46.70
2022-12-26T15:28:00.339Z,47.65
2022-12-26T15:30:57.398Z,49.38
2022-12-26T15:33:40.999Z,48.78
2022-12-26T15:36:24.916Z,48.58
2022-12-26T15:38:56.818Z,50.20
2022-12-26T15:41:45.864Z,46.85
2022-12-26T15:44:30.475Z,48.90
2022-12-26T15:47:33.431Z,47.70
2022-12-26T15:50:18.579Z,45.97
2022-12-26T15:53:07.016Z,48.13
2022-12-26T15:56:06.837Z,48.88
2022-12-26T15:58:50.722Z,47.55
2022-12-26T16:01:43.694Z,49.50
2022-12-26T16:04:49.885Z,47.63
2022-12-26T16:07:46.753Z,79.63
2022-12-26T16:10:24.649Z,75.50
2022-12-26T16:13:06.354Z,47.45
2022-12-26T16:15:48.952Z,47.63
2022-12-26T16:18:26.897Z,49.50
2022-12-26T16:21:38.046Z,50.28
2022-12-26T16:24:12.739Z,48.20
2022-12-26T16:26:47.101Z,50.72
2022-12-26T16:29:21.296Z,107.13
2022-12-26T16:32:03.491Z,53.45
2022-12-26T16:34:40.011Z,53.45
2022-12-26T16:37:19.650Z,53.35
2022-12-26T16:40:18.300Z,52.20
2022-12-26T16:43:01.576Z,52.33
2022-12-26T16:45:37.206Z,52.42
2022-12-26T16:48:13.605Z,52.28
2022-12-26T16:50:50.661Z,52.78
2022-12-26T16:53:36.352Z,53.10
2022-12-26T16:56:26.895Z,50.78
2022-12-26T16:59:17.116Z,50.63
2022-12-26T17:01:58.472Z,52.20
2022-12-26T17:04:31.414Z,52.60
2022-12-26T17:07:08.350Z,54.60
2022-12-26T17:09:45.401Z,55.30
2022-12-26T17:12:28.968Z,51.78
2022-12-26T17:15:02.663Z,52.28
2022-12-26T17:17:37.519Z,51.50
2022-12-26T17:20:25.003Z,51.60
2022-12-26T17:22:58.325Z,52.47
2022-12-26T17:25:33.964Z,51.20
2022-12-26T17:28:09.248Z,55.10
2022-12-26T17:30:53.324Z,61.63
2022-12-26T17:33:29.040Z,55.42
2022-12-26T17:39:20.667Z,56.45
2022-12-26T17:41:58.094Z,59.15
2022-12-26T17:44:44.880Z,56.60
2022-12-26T17:47:20.990Z,59.67
2022-12-26T17:49:54.552Z,57.47
2022-12-26T17:52:28.890Z,61.35
2022-12-26T17:55:03.146Z,55.92
2022-12-26T17:57:35.151Z,58.40
2022-12-26T18:00:15.719Z,54.53
2022-12-26T18:02:48.332Z,59.50
2022-12-26T18:05:21.042Z,56.65
2022-12-26T18:07:53.247Z,64.93
2022-12-26T18:10:29.137Z,63.22
2022-12-26T18:13:01.752Z,64.32
2022-12-26T18:15:33.860Z,70.85
2022-12-26T18:18:05.933Z,81.57
2022-12-26T18:20:37.872Z,86.55
2022-12-26T18:23:11.111Z,76.18
2022-12-26T18:25:43.304Z,59.13
2022-12-26T18:28:17.472Z,59.83
2022-12-26T18:30:49.513Z,56.88
2022-12-26T18:33:21.467Z,58.80
2022-12-26T18:35:54.007Z,59.33
2022-12-26T18:38:25.899Z,61.08
2022-12-26T18:41:01.105Z,60.67
2022-12-26T18:43:33.204Z,61.25
2022-12-26T18:46:05.398Z,68.68
2022-12-26T18:48:37.335Z,60.53
2022-12-26T18:51:09.491Z,62.60
2022-12-26T18:53:41.573Z,61.47
2022-12-26T18:56:18.950Z,59.42
2022-12-26T18:58:57.394Z,62.15
2022-12-26T19:01:29.976Z,60.20
2022-12-26T19:04:02.044Z,60.30
2022-12-26T19:06:35.339Z,70.40
2022-12-26T19:09:08.946Z,61.88
2022-12-26T19:11:42.198Z,64.72
2022-12-26T19:14:20.149Z,62.88
2022-12-26T19:16:52.160Z,62.00
2022-12-26T19:19:26.781Z,104.47
2022-12-26T19:21:58.806Z,93.10
2022-12-26T19:24:30.795Z,66.80
2022-12-26T19:27:03.075Z,87.55
2022-12-26T19:29:35.061Z,60.90
2022-12-26T19:32:06.976Z,58.70
2022-12-26T19:34:38.938Z,62.30
2022-12-26T19:37:10.876Z,58.50
2022-12-26T19:39:42.813Z,55.38
2022-12-26T19:42:14.892Z,59.20
2022-12-26T19:44:47.996Z,61.22
2022-12-26T19:47:20.206Z,57.72
2022-12-26T19:49:52.176Z,57.22
2022-12-26T19:52:27.906Z,68.18
2022-12-26T19:55:00.892Z,62.35
2022-12-26T19:57:33.324Z,62.53
2022-12-26T20:00:06.583Z,110.50
2022-12-26T20:02:43.949Z,64.50
2022-12-26T20:05:16.124Z,64.05
2022-12-26T20:07:48.238Z,62.15
2022-12-26T20:10:20.157Z,60.42
2022-12-26T20:12:52.537Z,59.35
2022-12-26T20:15:24.436Z,59.28
2022-12-26T20:17:59.614Z,59.40
2022-12-26T20:20:31.787Z,58.72
2022-12-26T20:23:04.205Z,57.85
2022-12-26T20:25:38.679Z,65.85
2022-12-26T20:28:11.255Z,60.65
2022-12-26T20:30:43.498Z,60.42
2022-12-26T20:33:15.445Z,57.90
2022-12-26T20:35:47.363Z,60.83
2022-12-26T20:38:20.208Z,101.07
2022-12-26T20:40:52.377Z,181.95
2022-12-26T20:43:25.252Z,63.35
2022-12-26T20:45:59.761Z,62.72
2022-12-26T20:48:36.416Z,62.08
2022-12-26T20:51:11.995Z,66.50
2022-12-26T20:53:44.014Z,65.65
2022-12-26T20:56:16.137Z,65.65
2022-12-26T20:58:48.148Z,62.42
2022-12-26T21:01:21.972Z,64.22
2022-12-26T21:03:55.991Z,60.00
2022-12-26T21:06:30.744Z,62.92
2022-12-26T21:09:04.618Z,67.18
2022-12-26T21:11:39.411Z,61.78
2022-12-26T21:14:19.652Z,62.53
2022-12-26T21:16:54.559Z,62.47
2022-12-26T21:19:29.309Z,60.95
2022-12-26T21:22:01.289Z,63.60
2022-12-26T21:24:33.230Z,64.88
2022-12-26T21:27:05.281Z,66.82
2022-12-26T21:29:38.671Z,68.43
2022-12-26T21:32:11.701Z,147.82
2022-12-26T21:34:44.266Z,137.13
2022-12-26T21:37:35.213Z,65.80
2022-12-26T21:40:08.157Z,62.40
2022-12-26T21:42:40.165Z,63.88
2022-12-26T21:45:16.307Z,62.25
2022-12-26T21:47:48.246Z,64.68
2022-12-26T21:50:20.507Z,63.67
2022-12-26T21:52:52.447Z,63.03
2022-12-26T21:55:27.018Z,62.83
2022-12-26T21:58:00.958Z,63.95
2022-12-26T22:00:35.410Z,67.03
2022-12-26T22:03:25.971Z,61.20
2022-12-26T22:05:58.145Z,63.13
2022-12-26T22:08:30.071Z,59.42
2022-12-26T22:11:20.578Z,60.60
2022-12-26T22:13:52.512Z,59.85
2022-12-26T22:16:25.696Z,61.22
2022-12-26T22:18:57.642Z,62.05
2022-12-26T22:21:29.568Z,61.08
2022-12-26T22:24:01.798Z,62.03
2022-12-26T22:26:33.739Z,60.90
2022-12-26T22:29:05.664Z,60.60
2022-12-26T22:31:38.189Z,64.70
2022-12-26T22:34:13.503Z,63.72
2022-12-26T22:36:45.366Z,62.08
2022-12-26T22:39:18.044Z,62.20
2022-12-26T22:41:49.967Z,61.97
2022-12-26T22:44:23.403Z,61.65
2022-12-26T22:46:57.101Z,64.03
2022-12-26T22:49:29.397Z,62.15
2022-12-26T22:52:01.350Z,59.63
2022-12-26T22:54:33.345Z,61.28
2022-12-26T22:57:05.293Z,58.42
2022-12-26T23:00:07.122Z,57.40
2022-12-26T23:02:29.646Z,56.50
2022-12-26T23:05:02.122Z,57.85
2022-12-26T23:07:34.412Z,56.75
2022-12-26T23:10:07.736Z,55.30
2022-12-26T23:12:46.019Z,56.00
2022-12-26T23:15:22.435Z,58.15
2022-12-26T23:18:45.412Z,57.85
2022-12-26T23:21:38.958Z,55.78
2022-12-26T23:24:20.542Z,56.38
2022-12-26T23:29:44.373Z,54.05
2022-12-26T23:32:16.356Z,58.22
2022-12-26T23:34:48.324Z,55.88
2022-12-26T23:37:20.290Z,58.17
2022-12-26T23:39:52.355Z,56.35
2022-12-26T23:42:24.574Z,57.80
2022-12-26T23:44:56.926Z,57.90
2022-12-26T23:47:29.214Z,55.80
2022-12-26T23:50:01.126Z,55.72
2022-12-26T23:52:33.545Z,57.42
2022-12-26T23:55:06.130Z,57.00
2022-12-26T23:57:38.130Z,57.17
